sensor_id;sensor_type;location;lat;lon;timestamp;pressure;altitude;pressure_sealevel;temperature;humidity
19843;BME280;10082;51.038;6.992;2023-04-22T00:00:26;-11435.69;;;-144.33;100.00
19843;BME280;10082;51.038;6.992;2023-04-22T00:02:53;-10739.13;;;-144.33;100.00
19843;BME280;10082;51.038;6.992;2023-04-22T00:05:21;-9983.88;;;-144.33;100.00
19843;BME280;10082;51.038;6.992;2023-04-22T00:07:51;-8847.78;;;-144.33;100.00
19843;BME280;10082;51.038;6.992;2023-04-22T00:10:18;-8080.44;;;-144.33;100.00
19843;BME280;10082;51.038;6.992;2023-04-22T00:12:45;-7189.91;;;-144.33;100.00
19843;BME280;10082;51.038;6.992;2023-04-22T00:15:13;-6508.19;;;-144.33;100.00
19843;BME280;10082;51.038;6.992;2023-04-22T00:17:42;-5675.88;;;-144.33;100.00
19843;BME280;10082;51.038;6.992;2023-04-22T00:20:10;-4976.31;;;-144.33;100.00
19843;BME280;10082;51.038;6.992;2023-04-22T00:22:38;-4315.72;;;-144.33;100.00
19843;BME280;10082;51.038;6.992;2023-04-22T00:25:07;-3598.28;;;-144.33;100.00
19843;BME280;10082;51.038;6.992;2023-04-22T00:27:35;-3295.25;;;-144.33;100.00
19843;BME280;10082;51.038;6.992;2023-04-22T00:30:02;-2913.97;;;-144.33;100.00
19843;BME280;10082;51.038;6.992;2023-04-22T00:32:29;-2274.53;;;-144.33;100.00
19843;BME280;10082;51.038;6.992;2023-04-22T00:34:56;-885.75;;;-144.33;100.00
19843;BME280;10082;51.038;6.992;2023-04-22T00:37:23;-1423.72;;;-144.33;100.00
19843;BME280;10082;51.038;6.992;2023-04-22T00:39:50;-748.81;;;-144.33;100.00
19843;BME280;10082;51.038;6.992;2023-04-22T00:42:20;57.34;;;-144.33;100.00
19843;BME280;10082;51.038;6.992;2023-04-22T00:44:49;763.81;;;-144.33;100.00
19843;BME280;10082;51.038;6.992;2023-04-22T00:47:18;1587.91;;;-144.33;100.00
19843;BME280;10082;51.038;6.992;2023-04-22T00:49:45;2723.50;;;-144.33;100.00
19843;BME280;10082;51.038;6.992;2023-04-22T00:52:14;3252.25;;;-144.33;100.00
19843;BME280;10082;51.038;6.992;2023-04-22T00:54:41;3724.25;;;-144.33;100.00
19843;BME280;10082;51.038;6.992;2023-04-22T00:57:09;4204.19;;;-144.33;100.00
19843;BME280;10082;51.038;6.992;2023-04-22T00:59:38;4631.25;;;-144.33;100.00
19843;BME280;10082;51.038;6.992;2023-04-22T01:02:05;4919.25;;;-144.33;100.00
19843;BME280;10082;51.038;6.992;2023-04-22T01:04:33;5203.38;;;-144.33;100.00
19843;BME280;10082;51.038;6.992;2023-04-22T01:07:01;6159.72;;;-144.33;100.00
19843;BME280;10082;51.038;6.992;2023-04-22T01:09:28;6391.00;;;-144.33;100.00
19843;BME280;10082;51.038;6.992;2023-04-22T01:11:56;6685.03;;;-144.33;100.00
19843;BME280;10082;51.038;6.992;2023-04-22T01:14:24;6861.44;;;-144.33;100.00
19843;BME280;10082;51.038;6.992;2023-04-22T01:16:52;7075.13;;;-144.33;100.00
19843;BME280;10082;51.038;6.992;2023-04-22T01:19:20;7986.81;;;-144.33;100.00
19843;BME280;10082;51.038;6.992;2023-04-22T01:21:49;8206.44;;;-144.33;100.00
19843;BME280;10082;51.038;6.992;2023-04-22T01:24:19;8535.91;;;-144.33;100.00
19843;BME280;10082;51.038;6.992;2023-04-22T01:26:47;8498.66;;;-144.33;100.00
19843;BME280;10082;51.038;6.992;2023-04-22T01:29:15;8712.41;;;-144.33;100.00
19843;BME280;10082;51.038;6.992;2023-04-22T01:31:42;8930.13;;;-144.33;100.00
19843;BME280;10082;51.038;6.992;2023-04-22T01:34:09;9036.03;;;-144.33;100.00
19843;BME280;10082;51.038;6.992;2023-04-22T01:36:40;9332.22;;;-144.33;100.00
19843;BME280;10082;51.038;6.992;2023-04-22T01:39:07;9950.16;;;-144.33;100.00
19843;BME280;10082;51.038;6.992;2023-04-22T01:41:36;10285.66;;;-144.33;100.00
19843;BME280;10082;51.038;6.992;2023-04-22T01:44:04;10491.66;;;-144.33;100.00
19843;BME280;10082;51.038;6.992;2023-04-22T01:46:32;10994.00;;;-144.33;100.00
19843;BME280;10082;51.038;6.992;2023-04-22T01:49:00;11272.69;;;-144.33;100.00
19843;BME280;10082;51.038;6.992;2023-04-22T01:51:28;11961.59;;;-144.33;100.00
19843;BME280;10082;51.038;6.992;2023-04-22T01:53:56;11947.84;;;-144.33;100.00
19843;BME280;10082;51.038;6.992;2023-04-22T01:56:23;12085.25;;;-144.33;100.00
19843;BME280;10082;51.038;6.992;2023-04-22T01:58:52;12358.13;;;-144.33;100.00
19843;BME280;10082;51.038;6.992;2023-04-22T02:01:20;12477.88;;;-144.33;100.00
19843;BME280;10082;51.038;6.992;2023-04-22T02:03:47;12762.53;;;-144.33;100.00
19843;BME280;10082;51.038;6.992;2023-04-22T02:06:14;13176.81;;;-144.33;100.00
19843;BME280;10082;51.038;6.992;2023-04-22T02:08:41;13467.44;;;-144.33;100.00
19843;BME280;10082;51.038;6.992;2023-04-22T02:11:08;13942.66;;;-144.33;100.00
19843;BME280;10082;51.038;6.992;2023-04-22T02:13:36;14178.34;;;-144.33;100.00
19843;BME280;10082;51.038;6.992;2023-04-22T02:16:07;14243.16;;;-144.33;100.00
19843;BME280;10082;51.038;6.992;2023-04-22T02:18:34;14541.69;;;-144.33;100.00
19843;BME280;10082;51.038;6.992;2023-04-22T02:21:01;14706.69;;;-144.33;100.00
19843;BME280;10082;51.038;6.992;2023-04-22T02:23:34;15081.88;;;-144.33;100.00
19843;BME280;10082;51.038;6.992;2023-04-22T02:26:02;15170.28;;;-144.33;100.00
19843;BME280;10082;51.038;6.992;2023-04-22T02:28:29;15160.47;;;-144.33;100.00
19843;BME280;10082;51.038;6.992;2023-04-22T02:30:57;15529.81;;;-144.33;100.00
19843;BME280;10082;51.038;6.992;2023-04-22T02:33:25;15496.41;;;-144.33;100.00
19843;BME280;10082;51.038;6.992;2023-04-22T02:35:52;15895.25;;;-144.33;100.00
19843;BME280;10082;51.038;6.992;2023-04-22T02:38:20;16757.94;;;-144.33;100.00
19843;BME280;10082;51.038;6.992;2023-04-22T02:40:47;16909.28;;;-144.33;100.00
19843;BME280;10082;51.038;6.992;2023-04-22T02:43:14;18133.91;;;-144.33;100.00
19843;BME280;10082;51.038;6.992;2023-04-22T02:45:42;18308.88;;;-144.33;100.00
19843;BME280;10082;51.038;6.992;2023-04-22T02:48:09;18515.31;;;-144.33;100.00
19843;BME280;10082;51.038;6.992;2023-04-22T02:50:38;18625.44;;;-144.33;100.00
19843;BME280;10082;51.038;6.992;2023-04-22T02:53:06;18932.19;;;-144.33;100.00
19843;BME280;10082;51.038;6.992;2023-04-22T02:55:35;18873.19;;;-144.33;100.00
19843;BME280;10082;51.038;6.992;2023-04-22T02:58:02;19085.56;;;-144.33;100.00
19843;BME280;10082;51.038;6.992;2023-04-22T03:00:29;19425.78;;;-144.33;100.00
19843;BME280;10082;51.038;6.992;2023-04-22T03:02:56;19547.72;;;-144.33;100.00
19843;BME280;10082;51.038;6.992;2023-04-22T03:05:29;19659.81;;;-144.33;100.00
19843;BME280;10082;51.038;6.992;2023-04-22T03:07:58;19764.06;;;-144.33;100.00
19843;BME280;10082;51.038;6.992;2023-04-22T03:10:26;20002.06;;;-144.33;100.00
19843;BME280;10082;51.038;6.992;2023-04-22T03:12:53;20021.72;;;-144.33;100.00
19843;BME280;10082;51.038;6.992;2023-04-22T03:15:21;20100.41;;;-144.33;100.00
19843;BME280;10082;51.038;6.992;2023-04-22T03:17:48;20263.69;;;-144.33;100.00
19843;BME280;10082;51.038;6.992;2023-04-22T03:20:18;20446.63;;;-144.33;100.00
19843;BME280;10082;51.038;6.992;2023-04-22T03:22:46;20230.25;;;-144.33;100.00
19843;BME280;10082;51.038;6.992;2023-04-22T03:25:16;20161.38;;;-144.33;100.00
19843;BME280;10082;51.038;6.992;2023-04-22T03:27:50;19565.41;;;-144.33;100.00
19843;BME280;10082;51.038;6.992;2023-04-22T03:30:18;19392.34;;;-144.33;100.00
19843;BME280;10082;51.038;6.992;2023-04-22T03:32:46;19246.81;;;-144.33;100.00
19843;BME280;10082;51.038;6.992;2023-04-22T03:35:20;19028.53;;;-144.33;100.00
19843;BME280;10082;51.038;6.992;2023-04-22T03:37:49;18855.50;;;-144.33;100.00
19843;BME280;10082;51.038;6.992;2023-04-22T03:40:26;18454.38;;;-144.33;100.00
19843;BME280;10082;51.038;6.992;2023-04-22T03:42:54;18251.88;;;-144.33;100.00
19843;BME280;10082;51.038;6.992;2023-04-22T03:45:21;18098.50;;;-144.33;100.00
19843;BME280;10082;51.038;6.992;2023-04-22T03:48:01;17966.78;;;-144.33;100.00
19843;BME280;10082;51.038;6.992;2023-04-22T03:50:36;17616.88;;;-144.33;100.00
19843;BME280;10082;51.038;6.992;2023-04-22T03:53:03;17514.66;;;-144.33;100.00
19843;BME280;10082;51.038;6.992;2023-04-22T03:55:33;17162.81;;;-144.33;100.00
19843;BME280;10082;51.038;6.992;2023-04-22T03:58:07;17094.03;;;-144.33;100.00
19843;BME280;10082;51.038;6.992;2023-04-22T04:00:34;16852.28;;;-144.33;100.00
19843;BME280;10082;51.038;6.992;2023-04-22T04:03:07;16614.47;;;-144.33;100.00
19843;BME280;10082;51.038;6.992;2023-04-22T04:05:35;16227.34;;;-144.33;100.00
19843;BME280;10082;51.038;6.992;2023-04-22T04:08:02;15995.47;;;-144.33;100.00
19843;BME280;10082;51.038;6.992;2023-04-22T04:10:32;15993.50;;;-144.33;100.00
19843;BME280;10082;51.038;6.992;2023-04-22T04:13:01;15586.78;;;-144.33;100.00
19843;BME280;10082;51.038;6.992;2023-04-22T04:15:35;15380.50;;;-144.33;100.00
19843;BME280;10082;51.038;6.992;2023-04-22T04:18:03;14952.22;;;-144.33;100.00
19843;BME280;10082;51.038;6.992;2023-04-22T04:20:32;16223.41;;;-144.33;100.00
19843;BME280;10082;51.038;6.992;2023-04-22T04:22:59;15258.69;;;-144.33;100.00
19843;BME280;10082;51.038;6.992;2023-04-22T04:25:27;13868.03;;;-144.33;100.00
19843;BME280;10082;51.038;6.992;2023-04-22T04:28:05;13351.56;;;-144.33;100.00
19843;BME280;10082;51.038;6.992;2023-04-22T04:30:34;13190.56;;;-144.33;100.00
19843;BME280;10082;51.038;6.992;2023-04-22T04:33:02;12874.44;;;-144.33;100.00
19843;BME280;10082;51.038;6.992;2023-04-22T04:35:32;12583.88;;;-144.33;100.00
19843;BME280;10082;51.038;6.992;2023-04-22T04:38:00;11896.81;;;-144.33;100.00
19843;BME280;10082;51.038;6.992;2023-04-22T04:40:29;11027.37;;;-144.33;100.00
19843;BME280;10082;51.038;6.992;2023-04-22T04:43:10;10050.22;;;-144.33;100.00
19843;BME280;10082;51.038;6.992;2023-04-22T04:45:47;9385.19;;;-144.33;100.00
19843;BME280;10082;51.038;6.992;2023-04-22T04:48:15;9039.97;;;-144.33;100.00
19843;BME280;10082;51.038;6.992;2023-04-22T04:50:50;8396.66;;;-144.33;100.00
19843;BME280;10082;51.038;6.992;2023-04-22T04:53:20;7500.56;;;-144.33;100.00
19843;BME280;10082;51.038;6.992;2023-04-22T04:55:47;6724.22;;;-144.33;100.00
19843;BME280;10082;51.038;6.992;2023-04-22T04:58:22;5987.25;;;-144.33;100.00
19843;BME280;10082;51.038;6.992;2023-04-22T05:01:02;4862.44;;;-144.33;100.00
19843;BME280;10082;51.038;6.992;2023-04-22T05:03:31;3882.94;;;-144.33;100.00
19843;BME280;10082;51.038;6.992;2023-04-22T05:05:59;3403.06;;;-144.33;100.00
19843;BME280;10082;51.038;6.992;2023-04-22T05:08:26;1963.78;;;-144.33;100.00
19843;BME280;10082;51.038;6.992;2023-04-22T05:11:01;1223.78;;;-144.33;100.00
19843;BME280;10082;51.038;6.992;2023-04-22T05:13:33;593.56;;;-144.33;100.00
19843;BME280;10082;51.038;6.992;2023-04-22T05:16:01;-11.16;;;-144.33;100.00
19843;BME280;10082;51.038;6.992;2023-04-22T05:18:28;-825.09;;;-144.33;100.00
19843;BME280;10082;51.038;6.992;2023-04-22T05:20:59;-1723.00;;;-144.33;100.00
19843;BME280;10082;51.038;6.992;2023-04-22T05:23:29;-2395.78;;;-144.33;100.00
19843;BME280;10082;51.038;6.992;2023-04-22T05:26:01;-3506.41;;;-144.33;100.00
19843;BME280;10082;51.038;6.992;2023-04-22T05:28:29;-4362.63;;;-144.33;100.00
19843;BME280;10082;51.038;6.992;2023-04-22T05:30:59;-4907.91;;;-144.33;100.00
19843;BME280;10082;51.038;6.992;2023-04-22T05:33:28;-5619.22;;;-144.33;100.00
19843;BME280;10082;51.038;6.992;2023-04-22T05:35:56;-5779.44;;;-144.33;100.00
19843;BME280;10082;51.038;6.992;2023-04-22T05:38:25;-6512.09;;;-144.33;100.00
19843;BME280;10082;51.038;6.992;2023-04-22T05:40:54;-6877.38;;;-144.33;100.00
19843;BME280;10082;51.038;6.992;2023-04-22T05:43:23;-6889.09;;;-144.33;100.00
19843;BME280;10082;51.038;6.992;2023-04-22T05:46:03;-7180.13;;;-144.33;100.00
19843;BME280;10082;51.038;6.992;2023-04-22T05:48:36;-7338.34;;;-144.33;100.00
19843;BME280;10082;51.038;6.992;2023-04-22T05:51:07;-6232.72;;;-144.33;100.00
19843;BME280;10082;51.038;6.992;2023-04-22T05:53:35;-6805.09;;;-144.33;100.00
19843;BME280;10082;51.038;6.992;2023-04-22T05:56:06;-6488.66;;;-144.33;100.00
19843;BME280;10082;51.038;6.992;2023-04-22T05:58:34;-7041.44;;;-144.33;100.00
19843;BME280;10082;51.038;6.992;2023-04-22T06:01:11;-8621.31;;;-144.33;100.00
19843;BME280;10082;51.038;6.992;2023-04-22T06:03:39;-9210.91;;;-144.33;100.00
19843;BME280;10082;51.038;6.992;2023-04-22T06:06:07;-11166.44;;;-144.33;100.00
19843;BME280;10082;51.038;6.992;2023-04-22T06:08:35;-12771.91;;;-144.33;100.00
19843;BME280;10082;51.038;6.992;2023-04-22T06:11:03;-13801.53;;;-144.33;100.00
19843;BME280;10082;51.038;6.992;2023-04-22T06:13:33;-15450.72;;;-144.33;100.00
19843;BME280;10082;51.038;6.992;2023-04-22T06:16:01;-17616.84;;;-144.33;100.00
19843;BME280;10082;51.038;6.992;2023-04-22T06:18:31;-17616.84;;;-144.33;100.00
19843;BME280;10082;51.038;6.992;2023-04-22T06:21:02;-17616.84;;;-144.33;100.00
19843;BME280;10082;51.038;6.992;2023-04-22T06:23:32;-17616.84;;;-144.33;100.00
19843;BME280;10082;51.038;6.992;2023-04-22T06:25:59;-17616.84;;;-144.33;100.00
19843;BME280;10082;51.038;6.992;2023-04-22T06:28:29;-17366.06;;;-144.33;100.00
19843;BME280;10082;51.038;6.992;2023-04-22T06:31:01;-15370.81;;;-144.33;100.00
19843;BME280;10082;51.038;6.992;2023-04-22T06:33:33;-13873.69;;;-144.33;100.00
19843;BME280;10082;51.038;6.992;2023-04-22T06:36:04;-10378.09;;;-144.33;100.00
19843;BME280;10082;51.038;6.992;2023-04-22T06:42:18;37901.03;;;-144.33;100.00
19843;BME280;10082;51.038;6.992;2023-04-22T06:45:06;63300.81;;;-144.33;100.00
19843;BME280;10082;51.038;6.992;2023-04-22T06:47:44;90082.81;;;-144.33;100.00
19843;BME280;10082;51.038;6.992;2023-04-22T06:50:15;102263.63;;;-144.33;100.00
19843;BME280;10082;51.038;6.992;2023-04-22T06:52:54;112171.53;;;-144.33;100.00
19843;BME280;10082;51.038;6.992;2023-04-22T06:55:22;112171.53;;;-144.33;100.00
19843;BME280;10082;51.038;6.992;2023-04-22T06:57:49;112171.53;;;-144.33;100.00
19843;BME280;10082;51.038;6.992;2023-04-22T07:00:17;112171.53;;;-144.33;100.00
19843;BME280;10082;51.038;6.992;2023-04-22T07:02:45;112171.53;;;-144.33;100.00
19843;BME280;10082;51.038;6.992;2023-04-22T07:05:14;112171.53;;;-144.33;100.00
19843;BME280;10082;51.038;6.992;2023-04-22T07:07:45;112171.53;;;-144.33;100.00
19843;BME280;10082;51.038;6.992;2023-04-22T07:10:17;112171.53;;;-144.33;100.00
19843;BME280;10082;51.038;6.992;2023-04-22T07:13:05;112171.53;;;-144.33;100.00
19843;BME280;10082;51.038;6.992;2023-04-22T07:15:32;112171.53;;;-144.33;100.00
19843;BME280;10082;51.038;6.992;2023-04-22T07:18:00;112171.53;;;-144.33;100.00
19843;BME280;10082;51.038;6.992;2023-04-22T07:20:30;112171.53;;;-144.33;100.00
19843;BME280;10082;51.038;6.992;2023-04-22T07:22:57;112171.53;;;-144.33;100.00
19843;BME280;10082;51.038;6.992;2023-04-22T07:25:24;112171.53;;;-144.33;100.00
19843;BME280;10082;51.038;6.992;2023-04-22T07:27:51;112171.53;;;-144.33;100.00
19843;BME280;10082;51.038;6.992;2023-04-22T07:30:18;112171.53;;;-144.33;98.10
19843;BME280;10082;51.038;6.992;2023-04-22T07:32:46;112171.53;;;-144.33;93.53
19843;BME280;10082;51.038;6.992;2023-04-22T07:35:13;112171.53;;;-144.33;89.98
19843;BME280;10082;51.038;6.992;2023-04-22T07:37:42;112171.53;;;-144.33;87.83
19843;BME280;10082;51.038;6.992;2023-04-22T07:40:10;112171.53;;;-144.33;86.32
19843;BME280;10082;51.038;6.992;2023-04-22T07:42:40;112171.53;;;-144.33;83.55
19843;BME280;10082;51.038;6.992;2023-04-22T07:45:07;112171.53;;;-144.33;81.76
19843;BME280;10082;51.038;6.992;2023-04-22T07:47:34;112171.53;;;-144.33;80.10
19843;BME280;10082;51.038;6.992;2023-04-22T07:50:02;112171.53;;;-144.33;78.42
19843;BME280;10082;51.038;6.992;2023-04-22T07:52:29;112171.53;;;-144.33;76.17
19843;BME280;10082;51.038;6.992;2023-04-22T07:54:58;112171.53;;;-144.33;75.95
19843;BME280;10082;51.038;6.992;2023-04-22T07:57:25;112171.53;;;-144.33;77.18
19843;BME280;10082;51.038;6.992;2023-04-22T07:59:52;112171.53;;;-144.33;75.52
19843;BME280;10082;51.038;6.992;2023-04-22T08:02:22;112171.53;;;-144.33;74.85
19843;BME280;10082;51.038;6.992;2023-04-22T08:04:49;112171.53;;;-144.33;75.88
19843;BME280;10082;51.038;6.992;2023-04-22T08:07:17;112171.53;;;-144.33;73.94
19843;BME280;10082;51.038;6.992;2023-04-22T08:09:44;112171.53;;;-144.33;74.96
19843;BME280;10082;51.038;6.992;2023-04-22T08:12:14;112171.53;;;-144.33;73.75
19843;BME280;10082;51.038;6.992;2023-04-22T08:14:42;112171.53;;;-144.33;73.65
19843;BME280;10082;51.038;6.992;2023-04-22T08:17:09;112171.53;;;-144.33;71.70
19843;BME280;10082;51.038;6.992;2023-04-22T08:19:36;112171.53;;;-144.33;71.70
19843;BME280;10082;51.038;6.992;2023-04-22T08:22:04;112171.53;;;-144.33;71.91
19843;BME280;10082;51.038;6.992;2023-04-22T08:24:37;112171.53;;;-144.33;72.43
19843;BME280;10082;51.038;6.992;2023-04-22T08:27:04;112171.53;;;-144.33;71.08
19843;BME280;10082;51.038;6.992;2023-04-22T08:29:33;112171.53;;;-144.33;67.36
19843;BME280;10082;51.038;6.992;2023-04-22T08:32:00;112171.53;;;-144.33;66.63
19843;BME280;10082;51.038;6.992;2023-04-22T08:34:27;112171.53;;;-144.33;65.40
19843;BME280;10082;51.038;6.992;2023-04-22T08:36:53;112171.53;;;-144.33;64.54
19843;BME280;10082;51.038;6.992;2023-04-22T08:39:20;112171.53;;;-144.33;64.18
19843;BME280;10082;51.038;6.992;2023-04-22T08:41:49;112171.53;;;-144.33;64.53
19843;BME280;10082;51.038;6.992;2023-04-22T08:44:18;112171.53;;;-144.33;65.89
19843;BME280;10082;51.038;6.992;2023-04-22T08:46:50;112171.53;;;-144.33;65.22
19843;BME280;10082;51.038;6.992;2023-04-22T08:49:18;112171.53;;;-144.33;65.29
19843;BME280;10082;51.038;6.992;2023-04-22T08:51:48;112171.53;;;-144.33;65.44
19843;BME280;10082;51.038;6.992;2023-04-22T08:54:15;112171.53;;;-144.33;64.18
19843;BME280;10082;51.038;6.992;2023-04-22T08:56:44;112171.53;;;-144.33;62.69
19843;BME280;10082;51.038;6.992;2023-04-22T08:59:12;112171.53;;;-144.33;63.52
19843;BME280;10082;51.038;6.992;2023-04-22T09:01:40;112171.53;;;-144.33;59.78
19843;BME280;10082;51.038;6.992;2023-04-22T09:04:10;112171.53;;;-144.33;58.98
19843;BME280;10082;51.038;6.992;2023-04-22T09:06:37;112171.53;;;-144.33;59.61
19843;BME280;10082;51.038;6.992;2023-04-22T09:09:06;112171.53;;;-144.33;57.03
19843;BME280;10082;51.038;6.992;2023-04-22T09:11:35;112171.53;;;-144.33;59.59
19843;BME280;10082;51.038;6.992;2023-04-22T09:14:02;112171.53;;;-144.33;56.75
19843;BME280;10082;51.038;6.992;2023-04-22T09:16:31;112171.53;;;-144.33;55.46
19843;BME280;10082;51.038;6.992;2023-04-22T09:18:58;112171.53;;;-144.33;54.75
19843;BME280;10082;51.038;6.992;2023-04-22T09:21:28;112171.53;;;-144.33;54.01
19843;BME280;10082;51.038;6.992;2023-04-22T09:23:56;112171.53;;;-144.33;51.07
19843;BME280;10082;51.038;6.992;2023-04-22T09:26:27;112171.53;;;-144.33;49.84
19843;BME280;10082;51.038;6.992;2023-04-22T09:28:56;112171.53;;;-144.33;48.22
19843;BME280;10082;51.038;6.992;2023-04-22T09:31:26;112171.53;;;-144.33;46.53
19843;BME280;10082;51.038;6.992;2023-04-22T09:33:55;112171.53;;;-144.33;46.70
19843;BME280;10082;51.038;6.992;2023-04-22T09:36:25;112171.53;;;-144.33;46.67
19843;BME280;10082;51.038;6.992;2023-04-22T09:38:58;112171.53;;;-144.33;46.45
19843;BME280;10082;51.038;6.992;2023-04-22T09:41:27;112171.53;;;-144.33;46.84
19843;BME280;10082;51.038;6.992;2023-04-22T09:43:55;112171.53;;;-144.33;46.44
19843;BME280;10082;51.038;6.992;2023-04-22T09:46:24;112171.53;;;-144.33;46.28
19843;BME280;10082;51.038;6.992;2023-04-22T09:48:54;112171.53;;;-144.33;46.50
19843;BME280;10082;51.038;6.992;2023-04-22T09:51:21;112171.53;;;-144.33;45.39
19843;BME280;10082;51.038;6.992;2023-04-22T09:54:01;112171.53;;;-144.33;48.91
19843;BME280;10082;51.038;6.992;2023-04-22T09:56:45;112171.53;;;-144.33;46.45
19843;BME280;10082;51.038;6.992;2023-04-22T09:59:18;112171.53;;;-144.33;47.17
19843;BME280;10082;51.038;6.992;2023-04-22T10:01:55;112171.53;;;-144.33;46.02
19843;BME280;10082;51.038;6.992;2023-04-22T10:04:23;112171.53;;;-144.33;44.67
19843;BME280;10082;51.038;6.992;2023-04-22T10:06:52;112171.53;;;-144.33;45.03
19843;BME280;10082;51.038;6.992;2023-04-22T10:09:23;112171.53;;;-144.33;46.55
19843;BME280;10082;51.038;6.992;2023-04-22T10:11:53;112171.53;;;-144.33;45.41
19843;BME280;10082;51.038;6.992;2023-04-22T10:14:23;112171.53;;;-144.33;45.28
19843;BME280;10082;51.038;6.992;2023-04-22T10:16:55;112171.53;;;-144.33;41.88
19843;BME280;10082;51.038;6.992;2023-04-22T10:19:24;112171.53;;;-144.33;41.13
19843;BME280;10082;51.038;6.992;2023-04-22T10:21:58;112171.53;;;-144.33;40.01
19843;BME280;10082;51.038;6.992;2023-04-22T10:24:35;112171.53;;;-144.33;40.28
19843;BME280;10082;51.038;6.992;2023-04-22T10:27:04;112171.53;;;-144.33;43.29
19843;BME280;10082;51.038;6.992;2023-04-22T10:29:37;112171.53;;;-144.33;44.13
19843;BME280;10082;51.038;6.992;2023-04-22T10:32:13;112171.53;;;-144.33;44.20
19843;BME280;10082;51.038;6.992;2023-04-22T10:35:01;112171.53;;;-144.33;47.76
19843;BME280;10082;51.038;6.992;2023-04-22T10:37:32;112171.53;;;-144.33;46.47
19843;BME280;10082;51.038;6.992;2023-04-22T10:40:13;112171.53;;;-144.33;45.32
19843;BME280;10082;51.038;6.992;2023-04-22T10:42:45;112171.53;;;-144.33;43.77
19843;BME280;10082;51.038;6.992;2023-04-22T10:45:14;112171.53;;;-144.33;43.94
19843;BME280;10082;51.038;6.992;2023-04-22T10:47:44;112171.53;;;-144.33;42.20
19843;BME280;10082;51.038;6.992;2023-04-22T10:50:19;112171.53;;;-144.33;40.35
19843;BME280;10082;51.038;6.992;2023-04-22T10:52:49;112171.53;;;-144.33;39.32
19843;BME280;10082;51.038;6.992;2023-04-22T10:55:18;112171.53;;;-144.33;37.96
19843;BME280;10082;51.038;6.992;2023-04-22T10:57:47;112171.53;;;-144.33;36.10
19843;BME280;10082;51.038;6.992;2023-04-22T11:00:31;112171.53;;;-144.33;36.16
19843;BME280;10082;51.038;6.992;2023-04-22T11:03:13;112171.53;;;-144.33;35.23
19843;BME280;10082;51.038;6.992;2023-04-22T11:05:42;112171.53;;;-144.33;35.73
19843;BME280;10082;51.038;6.992;2023-04-22T11:08:17;112171.53;;;-144.33;37.95
19843;BME280;10082;51.038;6.992;2023-04-22T11:10:48;112171.53;;;-144.33;39.03
19843;BME280;10082;51.038;6.992;2023-04-22T11:13:16;112171.53;;;-144.33;39.57
19843;BME280;10082;51.038;6.992;2023-04-22T11:15:46;112171.53;;;-144.33;39.70
19843;BME280;10082;51.038;6.992;2023-04-22T11:18:16;112171.53;;;-144.33;40.63
19843;BME280;10082;51.038;6.992;2023-04-22T11:20:44;112171.53;;;-144.33;40.25
19843;BME280;10082;51.038;6.992;2023-04-22T11:23:16;112171.53;;;-144.33;40.83
19843;BME280;10082;51.038;6.992;2023-04-22T11:25:44;112171.53;;;-144.33;40.24
19843;BME280;10082;51.038;6.992;2023-04-22T11:28:13;112171.53;;;-144.33;41.63
19843;BME280;10082;51.038;6.992;2023-04-22T11:30:41;112171.53;;;-144.33;42.60
19843;BME280;10082;51.038;6.992;2023-04-22T11:33:08;112171.53;;;-144.33;43.07
19843;BME280;10082;51.038;6.992;2023-04-22T11:35:40;112171.53;;;-144.33;42.80
19843;BME280;10082;51.038;6.992;2023-04-22T11:38:08;112171.53;;;-144.33;45.98
19843;BME280;10082;51.038;6.992;2023-04-22T11:40:36;112171.53;;;-144.33;46.98
19843;BME280;10082;51.038;6.992;2023-04-22T11:43:06;112171.53;;;-144.33;47.68
19843;BME280;10082;51.038;6.992;2023-04-22T11:45:36;112171.53;;;-144.33;48.71
19843;BME280;10082;51.038;6.992;2023-04-22T11:48:05;112171.53;;;-144.33;48.46
19843;BME280;10082;51.038;6.992;2023-04-22T11:50:34;112171.53;;;-144.33;48.54
19843;BME280;10082;51.038;6.992;2023-04-22T11:53:03;112171.53;;;-144.33;47.71
19843;BME280;10082;51.038;6.992;2023-04-22T11:55:32;112171.53;;;-144.33;47.27
19843;BME280;10082;51.038;6.992;2023-04-22T11:58:01;112171.53;;;-144.33;45.36
19843;BME280;10082;51.038;6.992;2023-04-22T12:00:33;112171.53;;;-144.33;43.50
19843;BME280;10082;51.038;6.992;2023-04-22T12:03:05;112171.53;;;-144.33;43.43
19843;BME280;10082;51.038;6.992;2023-04-22T12:05:41;112171.53;;;-144.33;40.10
19843;BME280;10082;51.038;6.992;2023-04-22T12:08:10;112171.53;;;-144.33;39.20
19843;BME280;10082;51.038;6.992;2023-04-22T12:10:43;112171.53;;;-144.33;40.39
19843;BME280;10082;51.038;6.992;2023-04-22T12:13:17;112171.53;;;-144.33;40.57
19843;BME280;10082;51.038;6.992;2023-04-22T12:15:53;112171.53;;;-144.33;41.64
19843;BME280;10082;51.038;6.992;2023-04-22T12:18:29;112171.53;;;-144.33;40.69
19843;BME280;10082;51.038;6.992;2023-04-22T12:20:59;112171.53;;;-144.33;40.33
19843;BME280;10082;51.038;6.992;2023-04-22T12:23:26;112171.53;;;-144.33;39.74
19843;BME280;10082;51.038;6.992;2023-04-22T12:25:54;112171.53;;;-144.33;40.54
19843;BME280;10082;51.038;6.992;2023-04-22T12:28:21;112171.53;;;-144.33;42.77
19843;BME280;10082;51.038;6.992;2023-04-22T12:30:48;112171.53;;;-144.33;43.82
19843;BME280;10082;51.038;6.992;2023-04-22T12:33:16;112171.53;;;-144.33;45.41
19843;BME280;10082;51.038;6.992;2023-04-22T12:35:44;112171.53;;;-144.33;45.67
19843;BME280;10082;51.038;6.992;2023-04-22T12:38:13;112171.53;;;-144.33;45.25
19843;BME280;10082;51.038;6.992;2023-04-22T12:40:40;112171.53;;;-144.33;44.17
19843;BME280;10082;51.038;6.992;2023-04-22T12:43:08;112171.53;;;-144.33;46.09
19843;BME280;10082;51.038;6.992;2023-04-22T12:45:35;112171.53;;;-144.33;47.88